Aérodrome :







RETROUVEZ-NOUS SUR...

 
LOGIN :

S'inscrire | Disclaimer

   EN    FR    IT 

 









Légende :    VFR   VFR Marginal   IFR   IFR Intensif   IFR Très Intensif
Visi : 
Plafond : 
>= 8 km
>= 3000ft
5 à 8 km
1000 à 3000 ft
1500m à 5 km
500 à 1000 ft
800 à 1500m
200 à 500 ft
< 800m
< 200 ft
Symboles :   Orages  Brouillard  Fortes neiges  Fortes précipitations  Vent > 20 kt






- Altitude de l'aérodrome : 1663 ft
- Code IATA : SLK


KSLK - Adirondack Regional

DERNIER METAR :
  • 110551Z AUTO VRB06KT 10SM OVC032 M09/M13 A3005 RMK AO2 SNE0452 SLP200 P0000 60000 T10891133 11017 21089 53024

METARs EXPIRÉS :
  • 110451Z AUTO VRB06KT 8SM -SN FEW028 OVC038 M08/M12 A3002 RMK AO2 SNB24 SLP187 P0000 T10781117 400781078
  • 110351Z AUTO VRB05KT 10SM FEW026 BKN036 M05/M11 A2999 RMK AO2 SNE32 SLP172 P0000 T10501111
  • 110344Z AUTO 26008KT 10SM FEW024 BKN036 BKN065 M05/M11 A2998 RMK AO2 SNE32 P0000 T10501111

TAF KSLK
Valide du 11 à 06h jusqu'au 12 à 06h UTC


110530Z 1106/1206 VRB04KT P6SM SCT028 BKN050
FM111500 22005KT P6SM SCT100
FM112200 22011KT 4SM -SHSN BR BKN025 BKN045
FM120100 26015G25KT P6SM VCSH BKN040



MET'MAP, la Météo Aéronautique d'un coup d'oeil ! - Copyright ORBIFLY Décembre 2007 - Disclaimer

ORBIFLY MET'MAP TEAM :

Programmation & Développement : Alexandra Zaïnal
Sur une idée originale de : Baudouin d'Aumeries
Assistance à la programmation : Marc-Olivier Méhu
Soutien technique & logistique : Manuel Goepfert

Contact : metmap@orbifly.com




SOURCES & CREDITS :

   NOAA